Back to Top

Language: 

My Weather Underground Personal Weather Station Historical Data with Graphs...

Delerius Weather Station Historical Data
Daily Summary for January 11, 2017 Units:  Both    English   Metric
« Previous Day
Next Day »
Daily Weekly Monthly Yearly Custom
  High: Low: Average:
Temperature: 52.0 °F /  11.1 °C 39.6 °F /  4.2 °C 45.6 °F /  7.6 °C
Dew Point: 47.4 °F /  8.6 °C 32.5 °F /  0.3 °C 38 °F /  3.3 °C
Humidity: 92 % 61 % 75 %
Wind Speed: 31.0 mph /  49.9 km/h - 20.1 mph /  32.3 km/h
Wind Gust: 58.0 mph /  93.3 km/h - -
Wind:- - West
Pressure: 29.78 in /  1008.4 hPa 29.52 in /  999.5 hPa -
Precipitation: 0.00 in /  0 mm    
Historical Graphs
 
 
Tabular Data for January 11, 2017
Time Temperature Dew Point Pressure Wind Wind Speed Wind Gust Humidity Rainfall Rate (Hourly) solar Conditions
00:01 47.7 °F /  8.7 °C 43.7 °F /  6.5 °C 29.68 in /  1005 hPa WSW 12.0 mph /  19.3 km/h -999.0 mph /  -1607.7 km/h 86 % 0.00 in /  0 mm 0 W/m2
00:06 47.7 °F /  8.7 °C 43.7 °F /  6.5 °C 29.68 in /  1005 hPa WSW 12.0 mph /  19.3 km/h -999.0 mph /  -1607.7 km/h 86 % 0.00 in /  0 mm 0 W/m2
00:11 47.7 °F /  8.7 °C 43.7 °F /  6.5 °C 29.68 in /  1005 hPa WSW 12.0 mph /  19.3 km/h -999.0 mph /  -1607.7 km/h 86 % 0.00 in /  0 mm 0 W/m2
00:16 47.7 °F /  8.7 °C 43.7 °F /  6.5 °C 29.68 in /  1005 hPa WSW 12.0 mph /  19.3 km/h -999.0 mph /  -1607.7 km/h 86 % 0.00 in /  0 mm 0 W/m2
00:21 47.7 °F /  8.7 °C 43.7 °F /  6.5 °C 29.68 in /  1005 hPa WSW 12.0 mph /  19.3 km/h -999.0 mph /  -1607.7 km/h 86 % 0.00 in /  0 mm 0 W/m2
00:26 47.8 °F /  8.8 °C 43.8 °F /  6.6 °C 29.68 in /  1005 hPa WSW 14.0 mph /  22.5 km/h -999.0 mph /  -1607.7 km/h 86 % 0.00 in /  0 mm 0 W/m2
00:31 47.8 °F /  8.8 °C 43.8 °F /  6.6 °C 29.68 in /  1005 hPa WSW 14.0 mph /  22.5 km/h -999.0 mph /  -1607.7 km/h 86 % 0.00 in /  0 mm 0 W/m2
00:36 47.8 °F /  8.8 °C 43.8 °F /  6.6 °C 29.68 in /  1005 hPa WSW 14.0 mph /  22.5 km/h -999.0 mph /  -1607.7 km/h 86 % 0.00 in /  0 mm 0 W/m2
00:41 48.0 °F /  8.9 °C 44.3 °F /  6.8 °C 29.66 in /  1004.3 hPa WSW 17.0 mph /  27.4 km/h -999.0 mph /  -1607.7 km/h 87 % 0.00 in /  0 mm 0 W/m2
00:46 48.0 °F /  8.9 °C 44.3 °F /  6.8 °C 29.66 in /  1004.3 hPa WSW 17.0 mph /  27.4 km/h -999.0 mph /  -1607.7 km/h 87 % 0.00 in /  0 mm 0 W/m2
00:51 48.0 °F /  8.9 °C 44.3 °F /  6.8 °C 29.66 in /  1004.3 hPa WSW 17.0 mph /  27.4 km/h -999.0 mph /  -1607.7 km/h 87 % 0.00 in /  0 mm 0 W/m2
00:56 48.1 °F /  8.9 °C 44.7 °F /  7.1 °C 29.66 in /  1004.3 hPa WSW 16.0 mph /  25.7 km/h -999.0 mph /  -1607.7 km/h 88 % 0.00 in /  0 mm 0 W/m2
01:01 48.1 °F /  8.9 °C 44.7 °F /  7.1 °C 29.66 in /  1004.3 hPa WSW 16.0 mph /  25.7 km/h -999.0 mph /  -1607.7 km/h 88 % 0.00 in /  0 mm 0 W/m2
01:06 48.1 °F /  8.9 °C 44.7 °F /  7.1 °C 29.66 in /  1004.3 hPa WSW 16.0 mph /  25.7 km/h -999.0 mph /  -1607.7 km/h 88 % 0.00 in /  0 mm 0 W/m2
01:11 48.0 °F /  8.9 °C 44.6 °F /  7 °C 29.66 in /  1004.3 hPa WSW 12.0 mph /  19.3 km/h -999.0 mph /  -1607.7 km/h 88 % 0.00 in /  0 mm 0 W/m2
01:16 48.0 °F /  8.9 °C 44.6 °F /  7 °C 29.66 in /  1004.3 hPa WSW 12.0 mph /  19.3 km/h -999.0 mph /  -1607.7 km/h 88 % 0.00 in /  0 mm 0 W/m2
01:21 48.0 °F /  8.9 °C 44.6 °F /  7 °C 29.66 in /  1004.3 hPa WSW 12.0 mph /  19.3 km/h -999.0 mph /  -1607.7 km/h 88 % 0.00 in /  0 mm 0 W/m2
01:26 47.7 °F /  8.7 °C 44.6 °F /  7 °C 29.64 in /  1003.6 hPa SW 9.0 mph /  14.5 km/h -999.0 mph /  -1607.7 km/h 89 % 0.00 in /  0 mm 0 W/m2
01:31 47.7 °F /  8.7 °C 44.6 °F /  7 °C 29.64 in /  1003.6 hPa SW 9.0 mph /  14.5 km/h -999.0 mph /  -1607.7 km/h 89 % 0.00 in /  0 mm 0 W/m2
01:36 47.7 °F /  8.7 °C 44.6 °F /  7 °C 29.64 in /  1003.6 hPa SW 9.0 mph /  14.5 km/h -999.0 mph /  -1607.7 km/h 89 % 0.00 in /  0 mm 0 W/m2
01:41 47.5 °F /  8.6 °C 44.4 °F /  6.9 °C 29.63 in /  1003.3 hPa SW 8.0 mph /  12.9 km/h -999.0 mph /  -1607.7 km/h 89 % 0.00 in /  0 mm 0 W/m2
01:46 47.5 °F /  8.6 °C 44.4 °F /  6.9 °C 29.63 in /  1003.3 hPa SW 8.0 mph /  12.9 km/h -999.0 mph /  -1607.7 km/h 89 % 0.00 in /  0 mm 0 W/m2
01:51 47.5 °F /  8.6 °C 44.4 °F /  6.9 °C 29.63 in /  1003.3 hPa SW 8.0 mph /  12.9 km/h -999.0 mph /  -1607.7 km/h 89 % 0.00 in /  0 mm 0 W/m2
01:56 47.2 °F /  8.4 °C 44.4 °F /  6.9 °C 29.62 in /  1002.9 hPa SW 10.0 mph /  16.1 km/h -999.0 mph /  -1607.7 km/h 90 % 0.00 in /  0 mm 0 W/m2
02:01 47.2 °F /  8.4 °C 44.4 °F /  6.9 °C 29.62 in /  1002.9 hPa SW 10.0 mph /  16.1 km/h -999.0 mph /  -1607.7 km/h 90 % 0.00 in /  0 mm 0 W/m2
02:06 47.2 °F /  8.4 °C 44.4 °F /  6.9 °C 29.62 in /  1002.9 hPa SW 10.0 mph /  16.1 km/h -999.0 mph /  -1607.7 km/h 90 % 0.00 in /  0 mm 0 W/m2
02:11 47.1 °F /  8.4 °C 44.6 °F /  7 °C 29.62 in /  1002.9 hPa SW 11.0 mph /  17.7 km/h -999.0 mph /  -1607.7 km/h 91 % 0.00 in /  0 mm 0 W/m2
02:16 47.1 °F /  8.4 °C 44.6 °F /  7 °C 29.62 in /  1002.9 hPa SW 11.0 mph /  17.7 km/h -999.0 mph /  -1607.7 km/h 91 % 0.00 in /  0 mm 0 W/m2
02:21 47.1 °F /  8.4 °C 44.6 °F /  7 °C 29.62 in /  1002.9 hPa SW 11.0 mph /  17.7 km/h -999.0 mph /  -1607.7 km/h 91 % 0.00 in /  0 mm 0 W/m2
02:26 47.3 °F /  8.5 °C 44.8 °F /  7.1 °C 29.61 in /  1002.6 hPa SW 7.0 mph /  11.3 km/h -999.0 mph /  -1607.7 km/h 91 % 0.00 in /  0 mm 0 W/m2
02:31 47.3 °F /  8.5 °C 44.8 °F /  7.1 °C 29.61 in /  1002.6 hPa SW 7.0 mph /  11.3 km/h -999.0 mph /  -1607.7 km/h 91 % 0.00 in /  0 mm 0 W/m2
02:36 47.3 °F /  8.5 °C 44.8 °F /  7.1 °C 29.61 in /  1002.6 hPa SW 7.0 mph /  11.3 km/h -999.0 mph /  -1607.7 km/h 91 % 0.00 in /  0 mm 0 W/m2
02:41 47.7 °F /  8.7 °C 45.5 °F /  7.5 °C 29.61 in /  1002.6 hPa SW 9.0 mph /  14.5 km/h -999.0 mph /  -1607.7 km/h 92 % 0.00 in /  0 mm 0 W/m2
02:46 47.7 °F /  8.7 °C 45.5 °F /  7.5 °C 29.61 in /  1002.6 hPa SW 9.0 mph /  14.5 km/h -999.0 mph /  -1607.7 km/h 92 % 0.00 in /  0 mm 0 W/m2
02:51 47.7 °F /  8.7 °C 45.5 °F /  7.5 °C 29.61 in /  1002.6 hPa SW 9.0 mph /  14.5 km/h -999.0 mph /  -1607.7 km/h 92 % 0.00 in /  0 mm 0 W/m2
02:56 48.7 °F /  9.3 °C 46.2 °F /  7.9 °C 29.60 in /  1002.3 hPa West 13.0 mph /  20.9 km/h -999.0 mph /  -1607.7 km/h 91 % 0.00 in /  0 mm 0 W/m2
03:01 48.7 °F /  9.3 °C 46.2 °F /  7.9 °C 29.60 in /  1002.3 hPa West 13.0 mph /  20.9 km/h -999.0 mph /  -1607.7 km/h 91 % 0.00 in /  0 mm 0 W/m2
03:06 48.7 °F /  9.3 °C 46.2 °F /  7.9 °C 29.60 in /  1002.3 hPa West 13.0 mph /  20.9 km/h -999.0 mph /  -1607.7 km/h 91 % 0.00 in /  0 mm 0 W/m2
03:11 49.7 °F /  9.8 °C 46.9 °F /  8.3 °C 29.60 in /  1002.3 hPa West 16.0 mph /  25.7 km/h -999.0 mph /  -1607.7 km/h 90 % 0.00 in /  0 mm 0 W/m2
03:16 49.7 °F /  9.8 °C 46.9 °F /  8.3 °C 29.60 in /  1002.3 hPa West 16.0 mph /  25.7 km/h -999.0 mph /  -1607.7 km/h 90 % 0.00 in /  0 mm 0 W/m2
03:21 49.7 °F /  9.8 °C 46.9 °F /  8.3 °C 29.60 in /  1002.3 hPa West 16.0 mph /  25.7 km/h -999.0 mph /  -1607.7 km/h 90 % 0.00 in /  0 mm 0 W/m2
03:26 51.1 °F /  10.6 °C 47.4 °F /  8.6 °C 29.59 in /  1001.9 hPa West 17.0 mph /  27.4 km/h -999.0 mph /  -1607.7 km/h 87 % 0.00 in /  0 mm 0 W/m2
03:31 51.1 °F /  10.6 °C 47.4 °F /  8.6 °C 29.59 in /  1001.9 hPa West 17.0 mph /  27.4 km/h -999.0 mph /  -1607.7 km/h 87 % 0.00 in /  0 mm 0 W/m2
03:36 51.1 °F /  10.6 °C 47.4 °F /  8.6 °C 29.59 in /  1001.9 hPa West 17.0 mph /  27.4 km/h -999.0 mph /  -1607.7 km/h 87 % 0.00 in /  0 mm 0 W/m2
03:41 51.8 °F /  11 °C 47.4 °F /  8.6 °C 29.56 in /  1000.9 hPa West 16.0 mph /  25.7 km/h -999.0 mph /  -1607.7 km/h 85 % 0.00 in /  0 mm 0 W/m2
03:46 51.8 °F /  11 °C 47.4 °F /  8.6 °C 29.56 in /  1000.9 hPa West 16.0 mph /  25.7 km/h -999.0 mph /  -1607.7 km/h 85 % 0.00 in /  0 mm 0 W/m2
03:51 51.8 °F /  11 °C 47.4 °F /  8.6 °C 29.56 in /  1000.9 hPa West 16.0 mph /  25.7 km/h -999.0 mph /  -1607.7 km/h 85 % 0.00 in /  0 mm 0 W/m2
03:56 52.0 °F /  11.1 °C 47.3 °F /  8.5 °C 29.55 in /  1000.6 hPa West 17.0 mph /  27.4 km/h -999.0 mph /  -1607.7 km/h 84 % 0.00 in /  0 mm 0 W/m2
04:01 52.0 °F /  11.1 °C 47.3 °F /  8.5 °C 29.55 in /  1000.6 hPa West 17.0 mph /  27.4 km/h -999.0 mph /  -1607.7 km/h 84 % 0.00 in /  0 mm 0 W/m2
04:06 52.0 °F /  11.1 °C 47.3 °F /  8.5 °C 29.55 in /  1000.6 hPa West 17.0 mph /  27.4 km/h -999.0 mph /  -1607.7 km/h 84 % 0.00 in /  0 mm 0 W/m2
04:11 52.0 °F /  11.1 °C 47.0 °F /  8.3 °C 29.54 in /  1000.2 hPa West 22.0 mph /  35.4 km/h -999.0 mph /  -1607.7 km/h 83 % 0.00 in /  0 mm 0 W/m2
04:16 52.0 °F /  11.1 °C 47.0 °F /  8.3 °C 29.54 in /  1000.2 hPa West 22.0 mph /  35.4 km/h -999.0 mph /  -1607.7 km/h 83 % 0.00 in /  0 mm 0 W/m2
04:21 52.0 °F /  11.1 °C 47.0 °F /  8.3 °C 29.54 in /  1000.2 hPa West 22.0 mph /  35.4 km/h -999.0 mph /  -1607.7 km/h 83 % 0.00 in /  0 mm 0 W/m2
04:26 51.9 °F /  11.1 °C 46.6 °F /  8.1 °C 29.53 in /  999.9 hPa West 23.0 mph /  37 km/h -999.0 mph /  -1607.7 km/h 82 % 0.00 in /  0 mm 0 W/m2
04:31 51.9 °F /  11.1 °C 46.6 °F /  8.1 °C 29.53 in /  999.9 hPa West 23.0 mph /  37 km/h -999.0 mph /  -1607.7 km/h 82 % 0.00 in /  0 mm 0 W/m2
04:36 51.9 °F /  11.1 °C 46.6 °F /  8.1 °C 29.53 in /  999.9 hPa West 23.0 mph /  37 km/h -999.0 mph /  -1607.7 km/h 82 % 0.00 in /  0 mm 0 W/m2
04:41 51.7 °F /  10.9 °C 46.7 °F /  8.2 °C 29.53 in /  999.9 hPa West 23.0 mph /  37 km/h -999.0 mph /  -1607.7 km/h 83 % 0.00 in /  0 mm 0 W/m2
04:46 51.7 °F /  10.9 °C 46.7 °F /  8.2 °C 29.53 in /  999.9 hPa West 23.0 mph /  37 km/h -999.0 mph /  -1607.7 km/h 83 % 0.00 in /  0 mm 0 W/m2
04:51 51.7 °F /  10.9 °C 46.7 °F /  8.2 °C 29.53 in /  999.9 hPa West 23.0 mph /  37 km/h -999.0 mph /  -1607.7 km/h 83 % 0.00 in /  0 mm 0 W/m2
04:56 51.3 °F /  10.7 °C 46.3 °F /  7.9 °C 29.52 in /  999.5 hPa WNW 23.0 mph /  37 km/h -999.0 mph /  -1607.7 km/h 83 % 0.00 in /  0 mm 0 W/m2
05:01 51.3 °F /  10.7 °C 46.3 °F /  7.9 °C 29.52 in /  999.5 hPa WNW 23.0 mph /  37 km/h -999.0 mph /  -1607.7 km/h 83 % 0.00 in /  0 mm 0 W/m2
05:06 51.3 °F /  10.7 °C 46.3 °F /  7.9 °C 29.52 in /  999.5 hPa WNW 23.0 mph /  37 km/h -999.0 mph /  -1607.7 km/h 83 % 0.00 in /  0 mm 0 W/m2
05:11 50.6 °F /  10.3 °C 43.0 °F /  6.1 °C 29.52 in /  999.5 hPa WNW 26.0 mph /  41.8 km/h -999.0 mph /  -1607.7 km/h 75 % 0.00 in /  0 mm 0 W/m2
05:16 50.6 °F /  10.3 °C 43.0 °F /  6.1 °C 29.52 in /  999.5 hPa WNW 26.0 mph /  41.8 km/h -999.0 mph /  -1607.7 km/h 75 % 0.00 in /  0 mm 0 W/m2
05:21 50.6 °F /  10.3 °C 43.0 °F /  6.1 °C 29.52 in /  999.5 hPa WNW 26.0 mph /  41.8 km/h -999.0 mph /  -1607.7 km/h 75 % 0.00 in /  0 mm 0 W/m2
05:26 49.7 °F /  9.8 °C 42.4 °F /  5.8 °C 29.52 in /  999.5 hPa WNW 24.0 mph /  38.6 km/h -999.0 mph /  -1607.7 km/h 76 % 0.00 in /  0 mm 0 W/m2
05:31 49.7 °F /  9.8 °C 42.4 °F /  5.8 °C 29.52 in /  999.5 hPa WNW 24.0 mph /  38.6 km/h -999.0 mph /  -1607.7 km/h 76 % 0.00 in /  0 mm 0 W/m2
05:36 49.7 °F /  9.8 °C 42.4 °F /  5.8 °C 29.52 in /  999.5 hPa WNW 24.0 mph /  38.6 km/h -999.0 mph /  -1607.7 km/h 76 % 0.00 in /  0 mm 0 W/m2
05:41 48.9 °F /  9.4 °C 41.0 °F /  5 °C 29.52 in /  999.5 hPa WNW 26.0 mph /  41.8 km/h -999.0 mph /  -1607.7 km/h 74 % 0.00 in /  0 mm 0 W/m2
05:46 48.9 °F /  9.4 °C 41.0 °F /  5 °C 29.52 in /  999.5 hPa WNW 26.0 mph /  41.8 km/h -999.0 mph /  -1607.7 km/h 74 % 0.00 in /  0 mm 0 W/m2
05:51 48.9 °F /  9.4 °C 41.0 °F /  5 °C 29.52 in /  999.5 hPa WNW 26.0 mph /  41.8 km/h -999.0 mph /  -1607.7 km/h 74 % 0.00 in /  0 mm 0 W/m2
05:56 48.4 °F /  9.1 °C 38.7 °F /  3.7 °C 29.54 in /  1000.2 hPa WNW 26.0 mph /  41.8 km/h -999.0 mph /  -1607.7 km/h 69 % 0.00 in /  0 mm 0 W/m2
06:10 48.0 °F /  8.9 °C 37.9 °F /  3.3 °C 29.55 in /  1000.6 hPa West 26.0 mph /  41.8 km/h 26.0 mph /  41.8 km/h 68 % 0.00 in /  0 mm 0 W/m2
06:20 47.9 °F /  8.8 °C 37.5 °F /  3.1 °C 29.55 in /  1000.6 hPa WNW 27.0 mph /  43.5 km/h 37.0 mph /  59.5 km/h 67 % 0.00 in /  0 mm 0 W/m2
06:30 47.7 °F /  8.7 °C 37.7 °F /  3.2 °C 29.55 in /  1000.6 hPa North 24.0 mph /  38.6 km/h 26.0 mph /  41.8 km/h 68 % 0.00 in /  0 mm 0 W/m2
06:35 47.7 °F /  8.7 °C 37.7 °F /  3.2 °C 29.55 in /  1000.6 hPa WNW 25.0 mph /  40.2 km/h 30.0 mph /  48.3 km/h 68 % 0.00 in /  0 mm 0 W/m2
06:40 47.7 °F /  8.7 °C 37.7 °F /  3.2 °C 29.55 in /  1000.6 hPa WNW 26.0 mph /  41.8 km/h 30.0 mph /  48.3 km/h 68 % 0.00 in /  0 mm 0 W/m2
06:45 47.5 °F /  8.6 °C 37.8 °F /  3.2 °C 29.55 in /  1000.6 hPa WNW 23.0 mph /  37 km/h 23.0 mph /  37 km/h 69 % 0.00 in /  0 mm 0 W/m2
06:55 47.4 °F /  8.6 °C 38.5 °F /  3.6 °C 29.58 in /  1001.6 hPa West 21.0 mph /  33.8 km/h 22.0 mph /  35.4 km/h 71 % 0.00 in /  0 mm 0 W/m2
07:05 47.3 °F /  8.5 °C 39.4 °F /  4.1 °C 29.57 in /  1001.2 hPa West 22.0 mph /  35.4 km/h 58.0 mph /  93.3 km/h 74 % 0.00 in /  0 mm 0 W/m2
07:10 47.2 °F /  8.4 °C 39.3 °F /  4.1 °C 29.58 in /  1001.6 hPa West 21.0 mph /  33.8 km/h 58.0 mph /  93.3 km/h 74 % 0.00 in /  0 mm 0 W/m2
07:15 47.1 °F /  8.4 °C 39.6 °F /  4.2 °C 29.59 in /  1001.9 hPa SW 22.0 mph /  35.4 km/h 58.0 mph /  93.3 km/h 75 % 0.00 in /  0 mm 0 W/m2
07:20 47.1 °F /  8.4 °C 39.2 °F /  4 °C 29.59 in /  1001.9 hPa WNW 23.0 mph /  37 km/h 23.0 mph /  37 km/h 74 % 0.00 in /  0 mm 0 W/m2
07:25 46.9 °F /  8.3 °C 39.0 °F /  3.9 °C 29.59 in /  1001.9 hPa West 21.0 mph /  33.8 km/h 26.0 mph /  41.8 km/h 74 % 0.00 in /  0 mm 0 W/m2
07:30 46.7 °F /  8.2 °C 38.5 °F /  3.6 °C 29.59 in /  1001.9 hPa WNW 20.0 mph /  32.2 km/h 20.0 mph /  32.2 km/h 73 % 0.00 in /  0 mm 0 W/m2
07:35 46.6 °F /  8.1 °C 38.4 °F /  3.6 °C 29.59 in /  1001.9 hPa West 19.0 mph /  30.6 km/h 58.0 mph /  93.3 km/h 73 % 0.00 in /  0 mm 0 W/m2
07:45 46.4 °F /  8 °C 37.5 °F /  3.1 °C 29.60 in /  1002.3 hPa WNW 19.0 mph /  30.6 km/h 23.0 mph /  37 km/h 71 % 0.00 in /  0 mm 0 W/m2
07:50 46.4 °F /  8 °C 37.5 °F /  3.1 °C 29.59 in /  1001.9 hPa West 21.0 mph /  33.8 km/h 58.0 mph /  93.3 km/h 71 % 0.00 in /  0 mm 0 W/m2
07:55 46.4 °F /  8 °C 37.5 °F /  3.1 °C 29.59 in /  1001.9 hPa WNW 22.0 mph /  35.4 km/h 58.0 mph /  93.3 km/h 71 % 0.00 in /  0 mm 0 W/m2
08:00 46.5 °F /  8.1 °C 37.2 °F /  2.9 °C 29.59 in /  1001.9 hPa West 23.0 mph /  37 km/h 58.0 mph /  93.3 km/h 70 % 0.00 in /  0 mm 0 W/m2
08:05 46.6 °F /  8.1 °C 37.7 °F /  3.2 °C 29.59 in /  1001.9 hPa West 25.0 mph /  40.2 km/h 58.0 mph /  93.3 km/h 71 % 0.00 in /  0 mm 0 W/m2
08:10 46.5 °F /  8.1 °C 38.3 °F /  3.5 °C 29.59 in /  1001.9 hPa WSW 28.0 mph /  45.1 km/h 28.0 mph /  45.1 km/h 73 % 0.00 in /  0 mm 0 W/m2
08:20 46.1 °F /  7.8 °C 39.6 °F /  4.2 °C 29.58 in /  1001.6 hPa West 26.0 mph /  41.8 km/h 26.0 mph /  41.8 km/h 78 % 0.00 in /  0 mm 0 W/m2
08:25 45.9 °F /  7.7 °C 39.8 °F /  4.3 °C 29.59 in /  1001.9 hPa WNW 25.0 mph /  40.2 km/h 28.0 mph /  45.1 km/h 79 % 0.00 in /  0 mm 0 W/m2
08:30 45.7 °F /  7.6 °C 39.9 °F /  4.4 °C 29.59 in /  1001.9 hPa WNW 24.0 mph /  38.6 km/h 58.0 mph /  93.3 km/h 80 % 0.00 in /  0 mm 7 W/m2
08:35 45.6 °F /  7.6 °C 39.8 °F /  4.3 °C 29.59 in /  1001.9 hPa West 24.0 mph /  38.6 km/h 58.0 mph /  93.3 km/h 80 % 0.00 in /  0 mm 9 W/m2
08:40 45.6 °F /  7.6 °C 39.8 °F /  4.3 °C 29.59 in /  1001.9 hPa NW 24.0 mph /  38.6 km/h 24.0 mph /  38.6 km/h 80 % 0.00 in /  0 mm 18 W/m2
08:45 45.5 °F /  7.5 °C 39.7 °F /  4.3 °C 29.59 in /  1001.9 hPa West 24.0 mph /  38.6 km/h 31.0 mph /  49.9 km/h 80 % 0.00 in /  0 mm 11 W/m2
08:55 45.7 °F /  7.6 °C 37.2 °F /  2.9 °C 29.61 in /  1002.6 hPa WNW 30.0 mph /  48.3 km/h 58.0 mph /  93.3 km/h 72 % 0.00 in /  0 mm 18 W/m2
09:00 45.6 °F /  7.6 °C 37.1 °F /  2.8 °C 29.61 in /  1002.6 hPa West 26.0 mph /  41.8 km/h 26.0 mph /  41.8 km/h 72 % 0.00 in /  0 mm 21 W/m2
09:05 45.7 °F /  7.6 °C 37.2 °F /  2.9 °C 29.61 in /  1002.6 hPa WNW 23.0 mph /  37 km/h 27.0 mph /  43.5 km/h 72 % 0.00 in /  0 mm 26 W/m2
09:10 45.7 °F /  7.6 °C 37.5 °F /  3.1 °C 29.61 in /  1002.6 hPa WNW 24.0 mph /  38.6 km/h 58.0 mph /  93.3 km/h 73 % 0.00 in /  0 mm 33 W/m2
09:15 45.7 °F /  7.6 °C 37.5 °F /  3.1 °C 29.62 in /  1002.9 hPa NW 24.0 mph /  38.6 km/h 58.0 mph /  93.3 km/h 73 % 0.00 in /  0 mm 37 W/m2
09:20 45.7 °F /  7.6 °C 37.2 °F /  2.9 °C 29.62 in /  1002.9 hPa NW 24.0 mph /  38.6 km/h 24.0 mph /  38.6 km/h 72 % 0.00 in /  0 mm 39 W/m2
09:30 45.8 °F /  7.7 °C 36.2 °F /  2.3 °C 29.62 in /  1002.9 hPa WNW 25.0 mph /  40.2 km/h 58.0 mph /  93.3 km/h 69 % 0.00 in /  0 mm 113 W/m2
09:35 45.9 °F /  7.7 °C 35.9 °F /  2.2 °C 29.63 in /  1003.3 hPa WNW 24.0 mph /  38.6 km/h 58.0 mph /  93.3 km/h 68 % 0.00 in /  0 mm 121 W/m2
09:40 45.9 °F /  7.7 °C 35.9 °F /  2.2 °C 29.62 in /  1002.9 hPa West 23.0 mph /  37 km/h 58.0 mph /  93.3 km/h 68 % 0.00 in /  0 mm 128 W/m2
09:45 46.0 °F /  7.8 °C 36.4 °F /  2.4 °C 29.63 in /  1003.3 hPa NNW 24.0 mph /  38.6 km/h 58.0 mph /  93.3 km/h 69 % 0.00 in /  0 mm 139 W/m2
09:50 46.1 °F /  7.8 °C 36.9 °F /  2.7 °C 29.64 in /  1003.6 hPa WNW 22.0 mph /  35.4 km/h 22.0 mph /  35.4 km/h 70 % 0.00 in /  0 mm 142 W/m2
09:55 46.2 °F /  7.9 °C 37.3 °F /  2.9 °C 29.65 in /  1003.9 hPa WNW 21.0 mph /  33.8 km/h 32.0 mph /  51.5 km/h 71 % 0.00 in /  0 mm 144 W/m2
10:05 46.2 °F /  7.9 °C 36.6 °F /  2.6 °C 29.65 in /  1003.9 hPa NW 25.0 mph /  40.2 km/h 58.0 mph /  93.3 km/h 69 % 0.00 in /  0 mm 160 W/m2
10:10 46.2 °F /  7.9 °C 37.0 °F /  2.8 °C 29.65 in /  1003.9 hPa West 23.0 mph /  37 km/h 58.0 mph /  93.3 km/h 70 % 0.00 in /  0 mm 167 W/m2
10:15 46.2 °F /  7.9 °C 37.3 °F /  2.9 °C 29.66 in /  1004.3 hPa WNW 22.0 mph /  35.4 km/h 58.0 mph /  93.3 km/h 71 % 0.00 in /  0 mm 171 W/m2
10:20 46.2 °F /  7.9 °C 37.3 °F /  2.9 °C 29.67 in /  1004.6 hPa NW 23.0 mph /  37 km/h 23.0 mph /  37 km/h 71 % 0.00 in /  0 mm 178 W/m2
10:30 46.1 °F /  7.8 °C 37.2 °F /  2.9 °C 29.65 in /  1003.9 hPa West 24.0 mph /  38.6 km/h 58.0 mph /  93.3 km/h 71 % 0.00 in /  0 mm 183 W/m2
10:35 46.1 °F /  7.8 °C 37.2 °F /  2.9 °C 29.67 in /  1004.6 hPa WNW 25.0 mph /  40.2 km/h 58.0 mph /  93.3 km/h 71 % 0.00 in /  0 mm 199 W/m2
10:45 46.3 °F /  7.9 °C 37.0 °F /  2.8 °C 29.67 in /  1004.6 hPa WNW 24.0 mph /  38.6 km/h 58.0 mph /  93.3 km/h 70 % 0.00 in /  0 mm 227 W/m2
10:50 46.5 °F /  8.1 °C 36.9 °F /  2.7 °C 29.68 in /  1005 hPa WNW 24.0 mph /  38.6 km/h 24.0 mph /  38.6 km/h 69 % 0.00 in /  0 mm 216 W/m2
10:55 46.5 °F /  8.1 °C 36.1 °F /  2.3 °C 29.67 in /  1004.6 hPa NW 25.0 mph /  40.2 km/h 25.0 mph /  40.2 km/h 67 % 0.00 in /  0 mm 229 W/m2
11:00 46.5 °F /  8.1 °C 35.7 °F /  2.1 °C 29.68 in /  1005 hPa WNW 26.0 mph /  41.8 km/h 26.0 mph /  41.8 km/h 66 % 0.00 in /  0 mm 229 W/m2
11:05 46.6 °F /  8.1 °C 35.8 °F /  2.1 °C 29.67 in /  1004.6 hPa WNW 25.0 mph /  40.2 km/h 58.0 mph /  93.3 km/h 66 % 0.00 in /  0 mm 229 W/m2
11:10 46.6 °F /  8.1 °C 35.8 °F /  2.1 °C 29.67 in /  1004.6 hPa WNW 24.0 mph /  38.6 km/h 58.0 mph /  93.3 km/h 66 % 0.00 in /  0 mm 230 W/m2
11:20 46.7 °F /  8.2 °C 35.9 °F /  2.2 °C 29.66 in /  1004.3 hPa NW 24.0 mph /  38.6 km/h 58.0 mph /  93.3 km/h 66 % 0.00 in /  0 mm 239 W/m2
11:25 46.8 °F /  8.2 °C 35.3 °F /  1.8 °C 29.66 in /  1004.3 hPa West 27.0 mph /  43.5 km/h 58.0 mph /  93.3 km/h 64 % 0.00 in /  0 mm 243 W/m2
11:30 46.8 °F /  8.2 °C 34.9 °F /  1.6 °C 29.66 in /  1004.3 hPa WNW 31.0 mph /  49.9 km/h 58.0 mph /  93.3 km/h 63 % 0.00 in /  0 mm 253 W/m2
11:35 46.8 °F /  8.2 °C 35.3 °F /  1.8 °C 29.66 in /  1004.3 hPa NW 30.0 mph /  48.3 km/h 58.0 mph /  93.3 km/h 64 % 0.00 in /  0 mm 258 W/m2
11:40 46.8 °F /  8.2 °C 34.5 °F /  1.4 °C 29.66 in /  1004.3 hPa NNW 27.0 mph /  43.5 km/h 27.0 mph /  43.5 km/h 62 % 0.00 in /  0 mm 262 W/m2
11:45 47.0 °F /  8.3 °C 35.0 °F /  1.7 °C 29.67 in /  1004.6 hPa West 26.0 mph /  41.8 km/h 58.0 mph /  93.3 km/h 63 % 0.00 in /  0 mm 267 W/m2
11:50 47.0 °F /  8.3 °C 35.0 °F /  1.7 °C 29.67 in /  1004.6 hPa West 24.0 mph /  38.6 km/h 24.0 mph /  38.6 km/h 63 % 0.00 in /  0 mm 253 W/m2
12:00 47.1 °F /  8.4 °C 35.9 °F /  2.2 °C 29.66 in /  1004.3 hPa NW 26.0 mph /  41.8 km/h 58.0 mph /  93.3 km/h 65 % 0.00 in /  0 mm 258 W/m2
12:05 47.1 °F /  8.4 °C 35.5 °F /  1.9 °C 29.66 in /  1004.3 hPa WNW 25.0 mph /  40.2 km/h 58.0 mph /  93.3 km/h 64 % 0.00 in /  0 mm 258 W/m2
12:10 47.0 °F /  8.3 °C 35.0 °F /  1.7 °C 29.66 in /  1004.3 hPa WNW 29.0 mph /  46.7 km/h 29.0 mph /  46.7 km/h 63 % 0.00 in /  0 mm 260 W/m2
12:15 47.1 °F /  8.4 °C 34.7 °F /  1.5 °C 29.67 in /  1004.6 hPa WNW 28.0 mph /  45.1 km/h 58.0 mph /  93.3 km/h 62 % 0.00 in /  0 mm 269 W/m2
12:20 47.1 °F /  8.4 °C 34.7 °F /  1.5 °C 29.67 in /  1004.6 hPa WNW 24.0 mph /  38.6 km/h 58.0 mph /  93.3 km/h 62 % 0.00 in /  0 mm 260 W/m2
12:25 47.0 °F /  8.3 °C 34.6 °F /  1.4 °C 29.67 in /  1004.6 hPa WNW 22.0 mph /  35.4 km/h 58.0 mph /  93.3 km/h 62 % 0.00 in /  0 mm 264 W/m2
12:35 47.1 °F /  8.4 °C 35.1 °F /  1.7 °C 29.68 in /  1005 hPa WNW 23.0 mph /  37 km/h 58.0 mph /  93.3 km/h 63 % 0.00 in /  0 mm 334 W/m2
12:40 47.2 °F /  8.4 °C 35.6 °F /  2 °C 29.69 in /  1005.3 hPa WNW 21.0 mph /  33.8 km/h 58.0 mph /  93.3 km/h 64 % 0.00 in /  0 mm 306 W/m2
12:45 47.3 °F /  8.5 °C 35.7 °F /  2.1 °C 29.69 in /  1005.3 hPa West 21.0 mph /  33.8 km/h 58.0 mph /  93.3 km/h 64 % 0.00 in /  0 mm 325 W/m2
12:50 47.5 °F /  8.6 °C 35.9 °F /  2.2 °C 29.69 in /  1005.3 hPa WNW 21.0 mph /  33.8 km/h 21.0 mph /  33.8 km/h 64 % 0.00 in /  0 mm 295 W/m2
12:55 47.6 °F /  8.7 °C 35.6 °F /  2 °C 29.69 in /  1005.3 hPa West 20.0 mph /  32.2 km/h 35.0 mph /  56.3 km/h 63 % 0.00 in /  0 mm 253 W/m2
13:00 47.3 °F /  8.5 °C 35.3 °F /  1.8 °C 29.70 in /  1005.6 hPa NNW 23.0 mph /  37 km/h 58.0 mph /  93.3 km/h 63 % 0.00 in /  0 mm 260 W/m2
13:10 47.0 °F /  8.3 °C 34.6 °F /  1.4 °C 29.70 in /  1005.6 hPa West 25.0 mph /  40.2 km/h 25.0 mph /  40.2 km/h 62 % 0.00 in /  0 mm 244 W/m2
13:15 46.9 °F /  8.3 °C 34.1 °F /  1.2 °C 29.70 in /  1005.6 hPa NW 24.0 mph /  38.6 km/h 26.0 mph /  41.8 km/h 61 % 0.00 in /  0 mm 220 W/m2
13:20 46.9 °F /  8.3 °C 34.6 °F /  1.4 °C 29.71 in /  1006 hPa WNW 22.0 mph /  35.4 km/h 22.0 mph /  35.4 km/h 62 % 0.00 in /  0 mm 227 W/m2
13:25 46.8 °F /  8.2 °C 34.0 °F /  1.1 °C 29.71 in /  1006 hPa West 21.0 mph /  33.8 km/h 58.0 mph /  93.3 km/h 61 % 0.00 in /  0 mm 244 W/m2
13:30 46.9 °F /  8.3 °C 34.6 °F /  1.4 °C 29.72 in /  1006.3 hPa NW 19.0 mph /  30.6 km/h 58.0 mph /  93.3 km/h 62 % 0.00 in /  0 mm 227 W/m2
13:35 46.8 °F /  8.2 °C 34.0 °F /  1.1 °C 29.71 in /  1006 hPa West 20.0 mph /  32.2 km/h 58.0 mph /  93.3 km/h 61 % 0.00 in /  0 mm 216 W/m2
13:40 46.8 °F /  8.2 °C 34.0 °F /  1.1 °C 29.72 in /  1006.3 hPa NW 22.0 mph /  35.4 km/h 58.0 mph /  93.3 km/h 61 % 0.00 in /  0 mm 234 W/m2
13:50 46.7 °F /  8.2 °C 34.0 °F /  1.1 °C 29.71 in /  1006 hPa WNW 24.0 mph /  38.6 km/h 24.0 mph /  38.6 km/h 61 % 0.00 in /  0 mm 230 W/m2
13:55 46.7 °F /  8.2 °C 34.0 °F /  1.1 °C 29.71 in /  1006 hPa West 24.0 mph /  38.6 km/h 58.0 mph /  93.3 km/h 61 % 0.00 in /  0 mm 236 W/m2
14:00 46.7 °F /  8.2 °C 34.0 °F /  1.1 °C 29.71 in /  1006 hPa WNW 22.0 mph /  35.4 km/h 58.0 mph /  93.3 km/h 61 % 0.00 in /  0 mm 186 W/m2
14:10 46.4 °F /  8 °C 33.7 °F /  0.9 °C 29.71 in /  1006 hPa WNW 25.0 mph /  40.2 km/h 25.0 mph /  40.2 km/h 61 % 0.00 in /  0 mm 135 W/m2
14:15 46.1 °F /  7.8 °C 33.4 °F /  0.8 °C 29.71 in /  1006 hPa WNW 24.0 mph /  38.6 km/h 26.0 mph /  41.8 km/h 61 % 0.00 in /  0 mm 83 W/m2
14:25 45.8 °F /  7.7 °C 34.3 °F /  1.3 °C 29.70 in /  1005.6 hPa WNW 23.0 mph /  37 km/h 58.0 mph /  93.3 km/h 64 % 0.00 in /  0 mm 163 W/m2
14:30 45.7 °F /  7.6 °C 34.6 °F /  1.4 °C 29.71 in /  1006 hPa WNW 22.0 mph /  35.4 km/h 58.0 mph /  93.3 km/h 65 % 0.00 in /  0 mm 160 W/m2
14:35 45.7 °F /  7.6 °C 35.0 °F /  1.7 °C 29.71 in /  1006 hPa WNW 21.0 mph /  33.8 km/h 58.0 mph /  93.3 km/h 66 % 0.00 in /  0 mm 121 W/m2
14:40 45.7 °F /  7.6 °C 34.6 °F /  1.4 °C 29.71 in /  1006 hPa WNW 19.0 mph /  30.6 km/h 19.0 mph /  30.6 km/h 65 % 0.00 in /  0 mm 137 W/m2
14:45 45.5 °F /  7.5 °C 34.4 °F /  1.3 °C 29.71 in /  1006 hPa West 20.0 mph /  32.2 km/h 28.0 mph /  45.1 km/h 65 % 0.00 in /  0 mm 107 W/m2
14:50 45.3 °F /  7.4 °C 34.2 °F /  1.2 °C 29.71 in /  1006 hPa West 21.0 mph /  33.8 km/h 58.0 mph /  93.3 km/h 65 % 0.00 in /  0 mm 98 W/m2
14:55 45.1 °F /  7.3 °C 34.0 °F /  1.1 °C 29.72 in /  1006.3 hPa WNW 22.0 mph /  35.4 km/h 58.0 mph /  93.3 km/h 65 % 0.00 in /  0 mm 105 W/m2
15:05 44.7 °F /  7.1 °C 33.3 °F /  0.7 °C 29.72 in /  1006.3 hPa WNW 21.0 mph /  33.8 km/h 58.0 mph /  93.3 km/h 64 % 0.00 in /  0 mm 77 W/m2
15:10 44.6 °F /  7 °C 33.2 °F /  0.7 °C 29.73 in /  1006.7 hPa WNW 20.0 mph /  32.2 km/h 20.0 mph /  32.2 km/h 64 % 0.00 in /  0 mm 76 W/m2
15:15 44.4 °F /  6.9 °C 33.4 °F /  0.8 °C 29.73 in /  1006.7 hPa WNW 22.0 mph /  35.4 km/h 26.0 mph /  41.8 km/h 65 % 0.00 in /  0 mm 40 W/m2
15:20 44.3 °F /  6.8 °C 33.7 °F /  0.9 °C 29.72 in /  1006.3 hPa West 23.0 mph /  37 km/h 23.0 mph /  37 km/h 66 % 0.00 in /  0 mm 33 W/m2
15:25 44.1 °F /  6.7 °C 33.5 °F /  0.8 °C 29.73 in /  1006.7 hPa WNW 22.0 mph /  35.4 km/h 58.0 mph /  93.3 km/h 66 % 0.00 in /  0 mm 30 W/m2
15:30 44.0 °F /  6.7 °C 33.4 °F /  0.8 °C 29.72 in /  1006.3 hPa WNW 22.0 mph /  35.4 km/h 58.0 mph /  93.3 km/h 66 % 0.00 in /  0 mm 30 W/m2
15:40 43.9 °F /  6.6 °C 33.3 °F /  0.7 °C 29.72 in /  1006.3 hPa WNW 25.0 mph /  40.2 km/h 25.0 mph /  40.2 km/h 66 % 0.00 in /  0 mm 30 W/m2
15:45 43.8 °F /  6.6 °C 33.6 °F /  0.9 °C 29.72 in /  1006.3 hPa NNW 24.0 mph /  38.6 km/h 27.0 mph /  43.5 km/h 67 % 0.00 in /  0 mm 16 W/m2
15:50 43.8 °F /  6.6 °C 33.9 °F /  1.1 °C 29.72 in /  1006.3 hPa West 23.0 mph /  37 km/h 23.0 mph /  37 km/h 68 % 0.00 in /  0 mm 21 W/m2
15:55 43.8 °F /  6.6 °C 34.3 °F /  1.3 °C 29.74 in /  1007 hPa WNW 24.0 mph /  38.6 km/h 24.0 mph /  38.6 km/h 69 % 0.00 in /  0 mm 12 W/m2
16:00 43.2 °F /  6.2 °C 35.1 °F /  1.7 °C 29.74 in /  1007 hPa WNW 24.0 mph /  38.6 km/h 24.0 mph /  38.6 km/h 73 % 0.00 in /  0 mm 9 W/m2
16:05 42.6 °F /  5.9 °C 34.5 °F /  1.4 °C 29.74 in /  1007 hPa WNW 22.0 mph /  35.4 km/h 58.0 mph /  93.3 km/h 73 % 0.00 in /  0 mm 7 W/m2
16:10 42.5 °F /  5.8 °C 34.1 °F /  1.2 °C 29.74 in /  1007 hPa NW 21.0 mph /  33.8 km/h 58.0 mph /  93.3 km/h 72 % 0.00 in /  0 mm 5 W/m2
16:20 42.4 °F /  5.8 °C 33.3 °F /  0.7 °C 29.74 in /  1007 hPa WNW 19.0 mph /  30.6 km/h 58.0 mph /  93.3 km/h 70 % 0.00 in /  0 mm 0 W/m2
16:25 42.5 °F /  5.8 °C 33.4 °F /  0.8 °C 29.74 in /  1007 hPa NW 19.0 mph /  30.6 km/h 58.0 mph /  93.3 km/h 70 % 0.00 in /  0 mm 0 W/m2
16:30 42.5 °F /  5.8 °C 33.0 °F /  0.6 °C 29.74 in /  1007 hPa West 20.0 mph /  32.2 km/h 20.0 mph /  32.2 km/h 69 % 0.00 in /  0 mm 0 W/m2
16:35 42.6 °F /  5.9 °C 33.1 °F /  0.6 °C 29.74 in /  1007 hPa West 21.0 mph /  33.8 km/h 21.0 mph /  33.8 km/h 69 % 0.00 in /  0 mm 0 W/m2
16:40 42.7 °F /  5.9 °C 33.2 °F /  0.7 °C 29.74 in /  1007 hPa WNW 21.0 mph /  33.8 km/h 58.0 mph /  93.3 km/h 69 % 0.00 in /  0 mm 0 W/m2
16:50 42.7 °F /  5.9 °C 33.2 °F /  0.7 °C 29.75 in /  1007.3 hPa WSW 20.0 mph /  32.2 km/h 20.0 mph /  32.2 km/h 69 % 0.00 in /  0 mm 0 W/m2
16:55 42.6 °F /  5.9 °C 33.1 °F /  0.6 °C 29.75 in /  1007.3 hPa WNW 19.0 mph /  30.6 km/h 58.0 mph /  93.3 km/h 69 % 0.00 in /  0 mm 0 W/m2
17:00 42.6 °F /  5.9 °C 33.5 °F /  0.8 °C 29.75 in /  1007.3 hPa WNW 17.0 mph /  27.4 km/h 58.0 mph /  93.3 km/h 70 % 0.00 in /  0 mm 0 W/m2
17:05 42.5 °F /  5.8 °C 33.4 °F /  0.8 °C 29.75 in /  1007.3 hPa West 18.0 mph /  29 km/h 58.0 mph /  93.3 km/h 70 % 0.00 in /  0 mm 0 W/m2
17:10 42.6 °F /  5.9 °C 33.5 °F /  0.8 °C 29.75 in /  1007.3 hPa NW 21.0 mph /  33.8 km/h 58.0 mph /  93.3 km/h 70 % 0.00 in /  0 mm 0 W/m2
17:15 42.7 °F /  5.9 °C 33.9 °F /  1.1 °C 29.76 in /  1007.7 hPa West 21.0 mph /  33.8 km/h 58.0 mph /  93.3 km/h 71 % 0.00 in /  0 mm 0 W/m2
17:25 42.6 °F /  5.9 °C 34.2 °F /  1.2 °C 29.75 in /  1007.3 hPa WNW 19.0 mph /  30.6 km/h 19.0 mph /  30.6 km/h 72 % 0.00 in /  0 mm 0 W/m2
17:30 42.7 °F /  5.9 °C 33.9 °F /  1.1 °C 29.76 in /  1007.7 hPa West 20.0 mph /  32.2 km/h 20.0 mph /  32.2 km/h 71 % 0.00 in /  0 mm 0 W/m2
17:35 42.6 °F /  5.9 °C 33.9 °F /  1.1 °C 29.76 in /  1007.7 hPa NW 18.0 mph /  29 km/h 58.0 mph /  93.3 km/h 71 % 0.00 in /  0 mm 0 W/m2
17:40 42.5 °F /  5.8 °C 33.8 °F /  1 °C 29.76 in /  1007.7 hPa WNW 18.0 mph /  29 km/h 58.0 mph /  93.3 km/h 71 % 0.00 in /  0 mm 0 W/m2
17:45 42.5 °F /  5.8 °C 33.4 °F /  0.8 °C 29.76 in /  1007.7 hPa West 20.0 mph /  32.2 km/h 58.0 mph /  93.3 km/h 70 % 0.00 in /  0 mm 0 W/m2
17:55 42.4 °F /  5.8 °C 33.3 °F /  0.7 °C 29.76 in /  1007.7 hPa West 23.0 mph /  37 km/h 58.0 mph /  93.3 km/h 70 % 0.00 in /  0 mm 0 W/m2
18:00 42.3 °F /  5.7 °C 33.2 °F /  0.7 °C 29.76 in /  1007.7 hPa WNW 22.0 mph /  35.4 km/h 22.0 mph /  35.4 km/h 70 % 0.00 in /  0 mm 0 W/m2
18:05 42.3 °F /  5.7 °C 33.2 °F /  0.7 °C 29.76 in /  1007.7 hPa WNW 22.0 mph /  35.4 km/h 58.0 mph /  93.3 km/h 70 % 0.00 in /  0 mm 0 W/m2
18:15 42.3 °F /  5.7 °C 33.9 °F /  1.1 °C 29.77 in /  1008 hPa WNW 19.0 mph /  30.6 km/h 58.0 mph /  93.3 km/h 72 % 0.00 in /  0 mm 0 W/m2
18:20 42.1 °F /  5.6 °C 34.1 °F /  1.2 °C 29.77 in /  1008 hPa NW 17.0 mph /  27.4 km/h 17.0 mph /  27.4 km/h 73 % 0.00 in /  0 mm 0 W/m2
18:25 42.0 °F /  5.6 °C 34.3 °F /  1.3 °C 29.77 in /  1008 hPa WNW 15.0 mph /  24.1 km/h 18.0 mph /  29 km/h 74 % 0.00 in /  0 mm 0 W/m2
18:35 41.9 °F /  5.5 °C 34.2 °F /  1.2 °C 29.78 in /  1008.4 hPa West 14.0 mph /  22.5 km/h 21.0 mph /  33.8 km/h 74 % 0.00 in /  0 mm 0 W/m2
18:40 41.9 °F /  5.5 °C 33.9 °F /  1.1 °C 29.78 in /  1008.4 hPa WNW 17.0 mph /  27.4 km/h 17.0 mph /  27.4 km/h 73 % 0.00 in /  0 mm 0 W/m2
18:55 41.9 °F /  5.5 °C 33.9 °F /  1.1 °C 29.77 in /  1008 hPa WNW 15.0 mph /  24.1 km/h 26.0 mph /  41.8 km/h 73 % 0.00 in /  0 mm 0 W/m2
19:00 41.9 °F /  5.5 °C 33.9 °F /  1.1 °C 29.77 in /  1008 hPa WNW 16.0 mph /  25.7 km/h 22.0 mph /  35.4 km/h 73 % 0.00 in /  0 mm 0 W/m2
19:05 41.9 °F /  5.5 °C 33.5 °F /  0.8 °C 29.76 in /  1007.7 hPa West 18.0 mph /  29 km/h 22.0 mph /  35.4 km/h 72 % 0.00 in /  0 mm 0 W/m2
19:10 41.9 °F /  5.5 °C 33.5 °F /  0.8 °C 29.77 in /  1008 hPa West 20.0 mph /  32.2 km/h 20.0 mph /  32.2 km/h 72 % 0.00 in /  0 mm 0 W/m2
19:15 41.9 °F /  5.5 °C 33.5 °F /  0.8 °C 29.76 in /  1007.7 hPa West 20.0 mph /  32.2 km/h 21.0 mph /  33.8 km/h 72 % 0.00 in /  0 mm 0 W/m2
19:20 42.0 °F /  5.6 °C 33.3 °F /  0.7 °C 29.76 in /  1007.7 hPa WNW 20.0 mph /  32.2 km/h 20.0 mph /  32.2 km/h 71 % 0.00 in /  0 mm 0 W/m2
19:25 42.0 °F /  5.6 °C 32.9 °F /  0.5 °C 29.76 in /  1007.7 hPa WNW 21.0 mph /  33.8 km/h 21.0 mph /  33.8 km/h 70 % 0.00 in /  0 mm 0 W/m2
19:30 41.9 °F /  5.5 °C 32.8 °F /  0.4 °C 29.76 in /  1007.7 hPa NW 20.0 mph /  32.2 km/h 21.0 mph /  33.8 km/h 70 % 0.00 in /  0 mm 0 W/m2
19:40 41.9 °F /  5.5 °C 32.5 °F /  0.3 °C 29.76 in /  1007.7 hPa WNW 21.0 mph /  33.8 km/h 21.0 mph /  33.8 km/h 69 % 0.00 in /  0 mm 0 W/m2
19:45 41.9 °F /  5.5 °C 32.5 °F /  0.3 °C 29.76 in /  1007.7 hPa WNW 22.0 mph /  35.4 km/h 22.0 mph /  35.4 km/h 69 % 0.00 in /  0 mm 0 W/m2
19:50 41.7 °F /  5.4 °C 32.6 °F /  0.3 °C 29.77 in /  1008 hPa West 20.0 mph /  32.2 km/h 30.0 mph /  48.3 km/h 70 % 0.00 in /  0 mm 0 W/m2
19:55 41.7 °F /  5.4 °C 32.6 °F /  0.3 °C 29.76 in /  1007.7 hPa West 18.0 mph /  29 km/h 30.0 mph /  48.3 km/h 70 % 0.00 in /  0 mm 0 W/m2
20:00 41.6 °F /  5.3 °C 33.2 °F /  0.7 °C 29.77 in /  1008 hPa NW 19.0 mph /  30.6 km/h 30.0 mph /  48.3 km/h 72 % 0.00 in /  0 mm 0 W/m2
20:05 41.4 °F /  5.2 °C 33.7 °F /  0.9 °C 29.76 in /  1007.7 hPa NW 18.0 mph /  29 km/h 30.0 mph /  48.3 km/h 74 % 0.00 in /  0 mm 0 W/m2
20:15 40.9 °F /  4.9 °C 34.2 °F /  1.2 °C 29.77 in /  1008 hPa WNW 17.0 mph /  27.4 km/h 30.0 mph /  48.3 km/h 77 % 0.00 in /  0 mm 0 W/m2
20:20 40.8 °F /  4.9 °C 34.5 °F /  1.4 °C 29.77 in /  1008 hPa WNW 16.0 mph /  25.7 km/h 16.0 mph /  25.7 km/h 78 % 0.00 in /  0 mm 0 W/m2
20:25 40.8 °F /  4.9 °C 35.1 °F /  1.7 °C 29.76 in /  1007.7 hPa WNW 14.0 mph /  22.5 km/h 30.0 mph /  48.3 km/h 80 % 0.00 in /  0 mm 0 W/m2
20:30 40.8 °F /  4.9 °C 35.4 °F /  1.9 °C 29.76 in /  1007.7 hPa WNW 15.0 mph /  24.1 km/h 15.0 mph /  24.1 km/h 81 % 0.00 in /  0 mm 0 W/m2
20:35 40.7 °F /  4.8 °C 35.0 °F /  1.7 °C 29.76 in /  1007.7 hPa NW 19.0 mph /  30.6 km/h 25.0 mph /  40.2 km/h 80 % 0.00 in /  0 mm 0 W/m2
20:40 40.9 °F /  4.9 °C 34.6 °F /  1.4 °C 29.76 in /  1007.7 hPa WNW 22.0 mph /  35.4 km/h 22.0 mph /  35.4 km/h 78 % 0.00 in /  0 mm 0 W/m2
20:45 41.1 °F /  5.1 °C 34.1 °F /  1.2 °C 29.76 in /  1007.7 hPa NW 23.0 mph /  37 km/h 23.0 mph /  37 km/h 76 % 0.00 in /  0 mm 0 W/m2
20:55 41.2 °F /  5.1 °C 33.9 °F /  1.1 °C 29.75 in /  1007.3 hPa WNW 22.0 mph /  35.4 km/h 30.0 mph /  48.3 km/h 75 % 0.00 in /  0 mm 0 W/m2
21:05 41.2 °F /  5.1 °C 33.5 °F /  0.8 °C 29.76 in /  1007.7 hPa WNW 20.0 mph /  32.2 km/h 30.0 mph /  48.3 km/h 74 % 0.00 in /  0 mm 0 W/m2
21:10 41.2 °F /  5.1 °C 33.5 °F /  0.8 °C 29.76 in /  1007.7 hPa West 19.0 mph /  30.6 km/h 30.0 mph /  48.3 km/h 74 % 0.00 in /  0 mm 0 W/m2
21:15 41.2 °F /  5.1 °C 33.9 °F /  1.1 °C 29.76 in /  1007.7 hPa West 19.0 mph /  30.6 km/h 30.0 mph /  48.3 km/h 75 % 0.00 in /  0 mm 0 W/m2
21:20 41.1 °F /  5.1 °C 34.1 °F /  1.2 °C 29.76 in /  1007.7 hPa West 20.0 mph /  32.2 km/h 30.0 mph /  48.3 km/h 76 % 0.00 in /  0 mm 0 W/m2
21:30 40.6 °F /  4.8 °C 34.3 °F /  1.3 °C 29.76 in /  1007.7 hPa West 23.0 mph /  37 km/h 30.0 mph /  48.3 km/h 78 % 0.00 in /  0 mm 0 W/m2
21:35 40.4 °F /  4.7 °C 34.4 °F /  1.3 °C 29.76 in /  1007.7 hPa West 19.0 mph /  30.6 km/h 30.0 mph /  48.3 km/h 79 % 0.00 in /  0 mm 0 W/m2
21:40 40.5 °F /  4.7 °C 34.8 °F /  1.6 °C 29.77 in /  1008 hPa West 18.0 mph /  29 km/h 30.0 mph /  48.3 km/h 80 % 0.00 in /  0 mm 0 W/m2
21:45 40.6 °F /  4.8 °C 35.5 °F /  1.9 °C 29.77 in /  1008 hPa West 22.0 mph /  35.4 km/h 30.0 mph /  48.3 km/h 82 % 0.00 in /  0 mm 0 W/m2
21:50 40.2 °F /  4.6 °C 35.8 °F /  2.1 °C 29.77 in /  1008 hPa WNW 22.0 mph /  35.4 km/h 22.0 mph /  35.4 km/h 84 % 0.00 in /  0 mm 0 W/m2
21:55 39.9 °F /  4.4 °C 35.8 °F /  2.1 °C 29.77 in /  1008 hPa WNW 19.0 mph /  30.6 km/h 23.0 mph /  37 km/h 85 % 0.00 in /  0 mm 0 W/m2
22:00 39.6 °F /  4.2 °C 35.8 °F /  2.1 °C 29.76 in /  1007.7 hPa West 17.0 mph /  27.4 km/h 17.0 mph /  27.4 km/h 86 % 0.00 in /  0 mm 0 W/m2
22:10 39.9 °F /  4.4 °C 35.5 °F /  1.9 °C 29.76 in /  1007.7 hPa West 16.0 mph /  25.7 km/h 30.0 mph /  48.3 km/h 84 % 0.00 in /  0 mm 0 W/m2
22:15 40.2 °F /  4.6 °C 35.4 °F /  1.9 °C 29.76 in /  1007.7 hPa WSW 18.0 mph /  29 km/h 30.0 mph /  48.3 km/h 83 % 0.00 in /  0 mm 0 W/m2
22:20 40.5 °F /  4.7 °C 35.1 °F /  1.7 °C 29.76 in /  1007.7 hPa WNW 20.0 mph /  32.2 km/h 20.0 mph /  32.2 km/h 81 % 0.00 in /  0 mm 0 W/m2
22:25 40.7 °F /  4.8 °C 35.0 °F /  1.7 °C 29.76 in /  1007.7 hPa West 21.0 mph /  33.8 km/h 35.0 mph /  56.3 km/h 80 % 0.00 in /  0 mm 0 W/m2
22:30 40.8 °F /  4.9 °C 34.8 °F /  1.6 °C 29.75 in /  1007.3 hPa West 23.0 mph /  37 km/h 23.0 mph /  37 km/h 79 % 0.00 in /  0 mm 0 W/m2
22:35 40.9 °F /  4.9 °C 34.9 °F /  1.6 °C 29.75 in /  1007.3 hPa West 23.0 mph /  37 km/h 29.0 mph /  46.7 km/h 79 % 0.00 in /  0 mm 0 W/m2
22:45 40.9 °F /  4.9 °C 34.6 °F /  1.4 °C 29.75 in /  1007.3 hPa West 23.0 mph /  37 km/h 35.0 mph /  56.3 km/h 78 % 0.00 in /  0 mm 0 W/m2
22:50 41.1 °F /  5.1 °C 34.1 °F /  1.2 °C 29.75 in /  1007.3 hPa WNW 23.0 mph /  37 km/h 23.0 mph /  37 km/h 76 % 0.00 in /  0 mm 0 W/m2
22:55 41.1 °F /  5.1 °C 34.4 °F /  1.3 °C 29.75 in /  1007.3 hPa WNW 22.0 mph /  35.4 km/h 30.0 mph /  48.3 km/h 77 % 0.00 in /  0 mm 0 W/m2
23:00 41.1 °F /  5.1 °C 34.4 °F /  1.3 °C 29.75 in /  1007.3 hPa WNW 21.0 mph /  33.8 km/h 30.0 mph /  48.3 km/h 77 % 0.00 in /  0 mm 0 W/m2
23:05 41.1 °F /  5.1 °C 34.8 °F /  1.6 °C 29.75 in /  1007.3 hPa WNW 22.0 mph /  35.4 km/h 30.0 mph /  48.3 km/h 78 % 0.00 in /  0 mm 0 W/m2
23:10 41.2 °F /  5.1 °C 34.5 °F /  1.4 °C 29.75 in /  1007.3 hPa NNW 21.0 mph /  33.8 km/h 21.0 mph /  33.8 km/h 77 % 0.00 in /  0 mm 0 W/m2
23:20 41.4 °F /  5.2 °C 34.7 °F /  1.5 °C 29.75 in /  1007.3 hPa NW 18.0 mph /  29 km/h 18.0 mph /  29 km/h 77 % 0.00 in /  0 mm 0 W/m2
23:25 41.5 °F /  5.3 °C 34.8 °F /  1.6 °C 29.74 in /  1007 hPa WNW 19.0 mph /  30.6 km/h 19.0 mph /  30.6 km/h 77 % 0.00 in /  0 mm 0 W/m2
23:30 41.6 °F /  5.3 °C 34.9 °F /  1.6 °C 29.75 in /  1007.3 hPa West 18.0 mph /  29 km/h 18.0 mph /  29 km/h 77 % 0.00 in /  0 mm 0 W/m2
23:35 41.5 °F /  5.3 °C 35.2 °F /  1.8 °C 29.75 in /  1007.3 hPa NW 13.0 mph /  20.9 km/h 30.0 mph /  48.3 km/h 78 % 0.00 in /  0 mm 0 W/m2
23:40 41.3 °F /  5.2 °C 35.0 °F /  1.7 °C 29.75 in /  1007.3 hPa WNW 13.0 mph /  20.9 km/h 30.0 mph /  48.3 km/h 78 % 0.00 in /  0 mm 0 W/m2
23:45 41.4 °F /  5.2 °C 34.7 °F /  1.5 °C 29.74 in /  1007 hPa WNW 16.0 mph /  25.7 km/h 30.0 mph /  48.3 km/h 77 % 0.00 in /  0 mm 0 W/m2
23:50 41.4 °F /  5.2 °C 34.7 °F /  1.5 °C 29.74 in /  1007 hPa WNW 19.0 mph /  30.6 km/h 30.0 mph /  48.3 km/h 77 % 0.00 in /  0 mm 0 W/m2
23:55 41.4 °F /  5.2 °C 34.4 °F /  1.3 °C 29.74 in /  1007 hPa West 20.0 mph /  32.2 km/h 30.0 mph /  48.3 km/h 76 % 0.00 in /  0 mm 0 W/m2
Delerius-Weather
Compliments of Weather Underground - 2 mb

Data updates at regular intervals.